createdAt,value
2023-04-08T00:01:44.032Z,27.80
2023-04-08T00:06:49.192Z,27.48
2023-04-08T00:11:54.932Z,27.52
2023-04-08T00:17:02.697Z,29.00
2023-04-08T00:22:07.966Z,30.58
2023-04-08T00:27:13.106Z,29.55
2023-04-08T00:32:20.942Z,29.75
2023-04-08T00:37:26.242Z,28.83
2023-04-08T00:42:31.674Z,27.75
2023-04-08T00:47:39.681Z,27.42
2023-04-08T00:52:44.750Z,25.35
2023-04-08T00:57:50.217Z,27.48
2023-04-08T01:03:06.301Z,28.52
2023-04-08T01:08:12.104Z,26.35
2023-04-08T01:13:21.330Z,27.42
2023-04-08T01:18:29.821Z,26.67
2023-04-08T01:23:41.708Z,27.55
2023-04-08T01:28:49.607Z,29.15
2023-04-08T01:33:55.664Z,28.77
2023-04-08T01:39:01.099Z,27.08
2023-04-08T01:44:09.200Z,28.08
2023-04-08T01:49:14.765Z,30.08
2023-04-08T01:54:19.798Z,28.90
2023-04-08T01:59:28.145Z,27.42
2023-04-08T02:04:33.551Z,28.73
2023-04-08T02:09:38.671Z,28.40
2023-04-08T02:14:46.629Z,28.45
2023-04-08T02:19:57.819Z,29.33
2023-04-08T02:25:03.556Z,31.40
2023-04-08T02:30:14.091Z,29.83
2023-04-08T02:35:19.267Z,30.15
2023-04-08T02:40:31.515Z,30.27
2023-04-08T02:45:42.398Z,31.02
2023-04-08T02:50:47.485Z,31.60
2023-04-08T02:55:52.523Z,31.77
2023-04-08T03:01:00.327Z,30.80
2023-04-08T03:06:05.788Z,31.05
2023-04-08T03:11:10.836Z,31.35
2023-04-08T03:16:18.521Z,32.03
2023-04-08T03:21:23.815Z,28.90
2023-04-08T03:26:29.461Z,29.40
2023-04-08T03:31:37.219Z,28.38
2023-04-08T03:36:42.281Z,26.20
2023-04-08T03:41:47.507Z,28.92
2023-04-08T03:46:55.201Z,29.10
2023-04-08T03:52:00.231Z,29.30
2023-04-08T03:57:05.337Z,27.65
2023-04-08T04:02:13.241Z,29.45
2023-04-08T04:07:18.322Z,28.92
2023-04-08T04:12:23.338Z,27.98
2023-04-08T04:17:31.094Z,30.08
2023-04-08T04:22:36.304Z,29.25
2023-04-08T04:27:41.461Z,29.40
2023-04-08T04:32:49.252Z,28.95
2023-04-08T04:37:54.365Z,30.95
2023-04-08T04:42:59.476Z,30.58
2023-04-08T04:48:07.269Z,31.92
2023-04-08T04:53:12.348Z,31.00
2023-04-08T04:58:17.406Z,35.08
2023-04-08T05:03:25.414Z,35.67
2023-04-08T05:08:30.822Z,31.35
2023-04-08T05:13:35.995Z,33.15
2023-04-08T05:18:43.662Z,30.70
2023-04-08T05:23:48.837Z,30.65
2023-04-08T05:28:54.278Z,27.85
2023-04-08T05:34:01.982Z,29.40
2023-04-08T05:39:07.202Z,29.02
2023-04-08T05:44:12.410Z,28.63
2023-04-08T05:49:20.235Z,28.60
2023-04-08T05:54:25.406Z,28.77
2023-04-08T05:59:30.580Z,31.13
2023-04-08T06:04:38.505Z,30.60
2023-04-08T06:09:45.378Z,28.80
2023-04-08T06:14:50.571Z,31.60
2023-04-08T06:19:58.287Z,30.20
2023-04-08T06:25:03.523Z,29.25
2023-04-08T06:30:09.957Z,31.98
2023-04-08T06:35:18.055Z,30.40
2023-04-08T06:40:23.851Z,29.35
2023-04-08T06:45:29.410Z,30.02
2023-04-08T06:50:37.065Z,30.90
2023-04-08T06:55:45.055Z,30.60
2023-04-08T07:00:50.545Z,34.53
2023-04-08T07:05:58.696Z,30.80
2023-04-08T07:11:03.739Z,29.08
2023-04-08T07:16:09.502Z,29.92
2023-04-08T07:21:18.401Z,26.58
2023-04-08T07:26:23.730Z,28.67
2023-04-08T07:31:29.007Z,27.63
2023-04-08T07:36:36.912Z,25.30
2023-04-08T07:41:41.974Z,25.10
2023-04-08T07:46:51.872Z,28.67
2023-04-08T07:52:00.130Z,23.98
2023-04-08T07:57:05.330Z,24.38
2023-04-08T08:02:10.790Z,22.25
2023-04-08T08:07:18.769Z,22.80
2023-04-08T08:12:23.820Z,21.20
2023-04-08T08:17:31.367Z,23.40
2023-04-08T08:22:50.618Z,21.15
2023-04-08T08:28:01.832Z,25.77
2023-04-08T08:33:07.000Z,24.10
2023-04-08T08:38:14.842Z,22.25
2023-04-08T08:43:20.624Z,22.35
2023-04-08T08:48:25.725Z,23.33
2023-04-08T08:53:36.002Z,21.85
2023-04-08T08:58:42.125Z,20.77
2023-04-08T09:03:47.312Z,21.48
2023-04-08T09:08:55.043Z,19.77
2023-04-08T09:14:00.887Z,19.27
2023-04-08T09:19:13.892Z,18.20
2023-04-08T09:24:34.068Z,19.05
2023-04-08T09:29:40.070Z,19.40
2023-04-08T09:34:45.385Z,17.85
2023-04-08T09:39:52.978Z,19.83
2023-04-08T09:44:58.752Z,19.05
2023-04-08T09:50:06.184Z,18.67
2023-04-08T09:55:16.630Z,18.10
2023-04-08T10:00:22.484Z,18.35
2023-04-08T10:05:28.161Z,15.90
2023-04-08T10:10:37.244Z,29.55
2023-04-08T10:15:44.560Z,15.90
2023-04-08T10:20:50.069Z,17.48
2023-04-08T10:25:58.193Z,16.10
2023-04-08T10:31:03.416Z,16.52
2023-04-08T10:36:16.855Z,16.35
2023-04-08T10:41:29.854Z,17.20
2023-04-08T10:46:41.286Z,16.23
2023-04-08T10:51:47.377Z,25.73
2023-04-08T10:56:55.985Z,15.95
2023-04-08T11:02:01.755Z,14.52
2023-04-08T11:07:09.682Z,15.35
2023-04-08T11:12:19.862Z,16.88
2023-04-08T11:22:31.261Z,17.42
2023-04-08T11:27:39.785Z,19.08
2023-04-08T11:32:45.179Z,18.05
2023-04-08T11:37:50.577Z,25.92
2023-04-08T11:42:59.084Z,17.77
2023-04-08T11:48:04.926Z,19.58
2023-04-08T11:53:20.849Z,27.35
2023-04-08T11:58:28.458Z,26.80
2023-04-08T12:03:33.636Z,18.45
2023-04-08T12:08:38.749Z,17.15
2023-04-08T12:13:46.516Z,14.95
2023-04-08T12:18:51.647Z,17.85
2023-04-08T12:23:57.174Z,18.52
2023-04-08T12:29:04.943Z,17.60
2023-04-08T12:34:10.086Z,16.55
2023-04-08T12:39:15.213Z,15.98
2023-04-08T12:44:23.038Z,19.75
2023-04-08T12:49:28.595Z,15.65
2023-04-08T12:54:33.925Z,14.77
2023-04-08T12:59:41.636Z,17.13
2023-04-08T13:04:46.896Z,16.02
2023-04-08T13:09:51.974Z,20.48
2023-04-08T13:15:00.543Z,20.63
2023-04-08T13:20:05.877Z,19.58
2023-04-08T13:25:11.681Z,26.35
2023-04-08T13:30:19.626Z,36.00
2023-04-08T13:35:25.184Z,18.13
2023-04-08T13:40:30.913Z,19.20
2023-04-08T13:45:39.193Z,17.55
2023-04-08T13:50:44.413Z,18.05
2023-04-08T13:55:55.274Z,17.92
2023-04-08T14:01:03.242Z,18.50
2023-04-08T14:06:08.600Z,15.85
2023-04-08T14:11:13.736Z,15.68
2023-04-08T14:16:21.715Z,19.60
2023-04-08T14:21:27.146Z,21.52
2023-04-08T14:26:36.044Z,30.13
2023-04-08T14:31:44.812Z,17.65
2023-04-08T14:36:50.026Z,17.00
2023-04-08T14:41:55.229Z,15.05
2023-04-08T14:47:02.964Z,15.20
2023-04-08T14:52:08.059Z,16.85
2023-04-08T14:57:13.499Z,18.08
2023-04-08T15:02:21.391Z,17.52
2023-04-08T15:07:26.883Z,18.02
2023-04-08T15:12:33.433Z,16.85
2023-04-08T15:17:41.190Z,17.02
2023-04-08T15:22:47.062Z,18.00
2023-04-08T15:27:52.306Z,16.40
2023-04-08T15:33:00.161Z,16.77
2023-04-08T15:38:05.269Z,17.27
2023-04-08T15:43:10.449Z,16.92
2023-04-08T15:48:19.128Z,18.27
2023-04-08T15:53:24.200Z,16.23
2023-04-08T15:58:29.418Z,17.35
2023-04-08T16:03:37.816Z,15.02
2023-04-08T16:08:43.939Z,15.40
2023-04-08T16:13:49.051Z,15.73
2023-04-08T16:18:57.028Z,16.30
2023-04-08T16:24:02.227Z,38.45
2023-04-08T16:29:07.796Z,17.83
2023-04-08T16:34:15.858Z,17.83
2023-04-08T16:39:20.890Z,16.42
2023-04-08T16:44:26.031Z,17.27
2023-04-08T16:49:33.678Z,18.55
2023-04-08T16:54:38.988Z,18.33
2023-04-08T16:59:44.136Z,18.00
2023-04-08T17:04:54.823Z,17.75
2023-04-08T17:10:00.059Z,19.25
2023-04-08T17:15:05.347Z,19.45
2023-04-08T17:20:15.007Z,38.58
2023-04-08T17:25:20.174Z,42.63
2023-04-08T17:30:25.516Z,18.90
2023-04-08T17:35:33.244Z,25.52
2023-04-08T17:40:38.440Z,25.02
2023-04-08T17:45:43.487Z,24.52
2023-04-08T17:50:51.211Z,21.45
2023-04-08T17:55:56.900Z,27.55
2023-04-08T18:01:02.086Z,31.10
2023-04-08T18:06:10.500Z,23.85
2023-04-08T18:11:15.812Z,23.65
2023-04-08T18:16:21.435Z,19.85
2023-04-08T18:21:29.361Z,20.05
2023-04-08T18:26:34.556Z,23.30
2023-04-08T18:31:39.676Z,23.00
2023-04-08T18:36:47.403Z,23.02
2023-04-08T18:41:52.479Z,20.13
2023-04-08T18:46:57.751Z,19.73
2023-04-08T18:52:05.400Z,21.42
2023-04-08T18:57:10.695Z,21.83
2023-04-08T19:02:16.684Z,21.52
2023-04-08T19:07:24.534Z,21.33
2023-04-08T19:12:29.748Z,22.10
2023-04-08T19:17:34.829Z,20.33
2023-04-08T19:22:42.590Z,20.15
2023-04-08T19:27:48.329Z,19.70
2023-04-08T19:32:54.174Z,19.58
2023-04-08T19:38:02.273Z,21.33
2023-04-08T19:43:07.345Z,21.17
2023-04-08T19:48:12.615Z,20.02
2023-04-08T19:53:20.454Z,21.98
2023-04-08T19:58:26.074Z,22.65
2023-04-08T20:03:31.391Z,22.05
2023-04-08T20:08:39.658Z,23.00
2023-04-08T20:13:44.866Z,20.98
2023-04-08T20:18:50.968Z,21.45
2023-04-08T20:23:59.202Z,23.00
2023-04-08T20:29:04.311Z,22.45
2023-04-08T20:34:09.843Z,20.77
2023-04-08T20:39:17.766Z,21.60
2023-04-08T20:44:22.971Z,21.20
2023-04-08T20:49:28.059Z,21.23
2023-04-08T20:54:35.993Z,21.27
2023-04-08T20:59:41.145Z,21.58
2023-04-08T21:04:46.721Z,23.48
2023-04-08T21:09:54.863Z,22.42
2023-04-08T21:15:00.124Z,21.77
2023-04-08T21:20:05.801Z,19.27
2023-04-08T21:25:14.101Z,21.60
2023-04-08T21:30:21.652Z,21.60
2023-04-08T21:35:27.098Z,20.92
2023-04-08T21:40:34.822Z,20.45
2023-04-08T21:45:39.983Z,21.13
2023-04-08T21:50:45.944Z,21.90
2023-04-08T21:55:53.792Z,21.33
2023-04-08T22:00:59.303Z,21.75
2023-04-08T22:06:04.444Z,20.77
2023-04-08T22:11:12.577Z,21.08
2023-04-08T22:16:17.775Z,22.80
2023-04-08T22:21:23.070Z,22.00
2023-04-08T22:26:30.923Z,24.45
2023-04-08T22:31:36.267Z,26.58
2023-04-08T22:36:41.920Z,25.20
2023-04-08T22:41:49.797Z,25.90
2023-04-08T22:46:54.977Z,27.25
2023-04-08T22:52:00.167Z,27.17
2023-04-08T22:57:08.343Z,27.48
2023-04-08T23:02:13.522Z,28.23
2023-04-08T23:07:18.725Z,27.75
2023-04-08T23:12:26.570Z,27.55
2023-04-08T23:17:31.847Z,29.42
2023-04-08T23:22:37.064Z,28.15
2023-04-08T23:27:46.006Z,28.63
2023-04-08T23:32:51.205Z,33.25
2023-04-08T23:37:56.484Z,27.90
2023-04-08T23:43:04.375Z,29.30
2023-04-08T23:48:10.364Z,28.08
2023-04-08T23:53:15.953Z,29.30
2023-04-08T23:58:23.682Z,29.92
